createdAt,value
2023-03-10T00:00:47.276Z,49.50
2023-03-10T00:03:13.651Z,50.38
2023-03-10T00:05:40.191Z,46.58
2023-03-10T00:08:06.823Z,50.55
2023-03-10T00:10:33.276Z,48.75
2023-03-10T00:12:59.769Z,58.58
2023-03-10T00:15:26.323Z,69.15
2023-03-10T00:17:55.536Z,51.60
2023-03-10T00:20:23.204Z,55.25
2023-03-10T00:22:49.663Z,50.40
2023-03-10T00:25:16.273Z,136.52
2023-03-10T00:27:46.398Z,52.33
2023-03-10T00:30:14.554Z,49.78
2023-03-10T00:32:40.995Z,49.45
2023-03-10T00:35:07.848Z,49.15
2023-03-10T00:37:37.112Z,63.53
2023-03-10T00:40:06.324Z,50.33
2023-03-10T00:42:32.838Z,46.17
2023-03-10T00:44:59.214Z,50.05
2023-03-10T00:47:25.651Z,50.88
2023-03-10T00:49:52.165Z,49.00
2023-03-10T00:52:18.573Z,49.63
2023-03-10T00:54:45.013Z,49.00
2023-03-10T00:57:11.531Z,50.85
2023-03-10T00:59:49.956Z,48.90
2023-03-10T01:02:20.739Z,47.42
2023-03-10T01:04:48.151Z,48.28
2023-03-10T01:07:15.813Z,49.22
2023-03-10T01:09:42.195Z,47.38
2023-03-10T01:12:09.055Z,49.63
2023-03-10T01:14:35.647Z,48.42
2023-03-10T01:17:05.200Z,48.42
2023-03-10T01:19:31.781Z,52.13
2023-03-10T01:21:58.330Z,49.58
2023-03-10T01:24:26.102Z,49.42
2023-03-10T01:26:52.572Z,52.30
2023-03-10T01:29:18.998Z,50.75
2023-03-10T01:31:45.498Z,50.30
2023-03-10T01:34:11.989Z,50.08
2023-03-10T01:36:41.613Z,51.83
2023-03-10T01:39:08.103Z,55.35
2023-03-10T01:41:40.098Z,50.67
2023-03-10T01:44:14.257Z,77.15
2023-03-10T01:46:49.225Z,49.83
2023-03-10T01:49:39.827Z,49.50
2023-03-10T01:52:14.612Z,46.17
2023-03-10T01:54:46.528Z,52.33
2023-03-10T01:57:15.119Z,52.40
2023-03-10T01:59:43.298Z,55.08
2023-03-10T02:02:10.152Z,52.95
2023-03-10T02:04:42.513Z,57.22
2023-03-10T02:07:09.084Z,54.65
2023-03-10T02:09:42.404Z,59.92
2023-03-10T02:12:09.780Z,55.23
2023-03-10T02:14:37.085Z,58.35
2023-03-10T02:17:12.261Z,57.33
2023-03-10T02:20:00.180Z,49.95
2023-03-10T02:22:27.019Z,49.28
2023-03-10T02:25:31.232Z,52.00
2023-03-10T02:27:58.114Z,49.28
2023-03-10T02:30:32.802Z,49.15
2023-03-10T02:33:03.990Z,49.80
2023-03-10T02:35:30.453Z,49.35
2023-03-10T02:37:56.978Z,49.65
2023-03-10T02:40:33.790Z,45.47
2023-03-10T02:43:03.782Z,45.15
2023-03-10T02:45:33.578Z,45.83
2023-03-10T02:48:00.135Z,46.00
2023-03-10T02:50:38.382Z,47.67
2023-03-10T02:53:23.339Z,45.72
2023-03-10T02:55:49.808Z,52.30
2023-03-10T02:58:16.452Z,50.40
2023-03-10T03:00:45.912Z,48.17
2023-03-10T03:03:14.413Z,47.72
2023-03-10T03:05:41.201Z,47.92
2023-03-10T03:08:08.918Z,49.78
2023-03-10T03:10:36.254Z,47.92
2023-03-10T03:13:02.898Z,52.67
2023-03-10T03:15:29.704Z,50.50
2023-03-10T03:17:58.509Z,53.53
2023-03-10T03:20:26.834Z,49.78
2023-03-10T03:22:54.871Z,52.55
2023-03-10T03:25:23.270Z,46.30
2023-03-10T03:27:51.430Z,47.67
2023-03-10T03:30:22.371Z,47.40
2023-03-10T03:32:49.190Z,50.10
2023-03-10T03:35:18.656Z,47.40
2023-03-10T03:37:45.111Z,45.45
2023-03-10T03:40:13.378Z,47.78
2023-03-10T03:42:41.228Z,46.35
2023-03-10T03:45:09.317Z,47.47
2023-03-10T03:47:35.795Z,47.90
2023-03-10T03:50:03.275Z,49.55
2023-03-10T03:52:31.796Z,45.33
2023-03-10T03:54:58.233Z,46.95
2023-03-10T03:57:24.820Z,47.47
2023-03-10T03:59:54.079Z,47.50
2023-03-10T04:02:29.628Z,46.88
2023-03-10T04:04:56.111Z,43.45
2023-03-10T04:07:22.534Z,46.08
2023-03-10T04:09:49.174Z,47.90
2023-03-10T04:12:15.627Z,48.15
2023-03-10T04:14:42.063Z,49.67
2023-03-10T04:17:12.253Z,48.83
2023-03-10T04:19:38.761Z,46.33
2023-03-10T04:22:05.293Z,48.47
2023-03-10T04:24:31.795Z,45.58
2023-03-10T04:26:58.246Z,44.88
2023-03-10T04:29:24.682Z,45.60
2023-03-10T04:32:04.878Z,45.03
2023-03-10T04:34:32.168Z,42.00
2023-03-10T04:36:58.662Z,43.20
2023-03-10T04:39:25.202Z,45.97
2023-03-10T04:41:51.662Z,44.72
2023-03-10T04:44:30.431Z,44.58
2023-03-10T04:46:57.149Z,44.58
2023-03-10T04:49:25.880Z,42.85
2023-03-10T04:51:52.446Z,43.53
2023-03-10T04:54:18.873Z,44.63
2023-03-10T04:56:45.363Z,44.58
2023-03-10T04:59:11.830Z,42.55
2023-03-10T05:01:38.500Z,44.83
2023-03-10T05:04:05.789Z,41.22
2023-03-10T05:06:35.112Z,42.55
2023-03-10T05:09:04.589Z,41.88
2023-03-10T05:11:31.877Z,41.55
2023-03-10T05:13:58.421Z,40.63
2023-03-10T05:16:24.971Z,43.05
2023-03-10T05:18:51.410Z,41.33
2023-03-10T05:21:17.924Z,40.30
2023-03-10T05:23:44.322Z,41.42
2023-03-10T05:26:11.733Z,42.45
2023-03-10T05:28:38.515Z,41.80
2023-03-10T05:31:12.447Z,41.72
2023-03-10T05:33:38.926Z,42.00
2023-03-10T05:36:11.039Z,43.65
2023-03-10T05:38:38.211Z,44.70
2023-03-10T05:41:09.133Z,42.58
2023-03-10T05:43:36.014Z,42.67
2023-03-10T05:46:02.745Z,41.28
2023-03-10T05:48:30.010Z,40.75
2023-03-10T05:51:07.930Z,42.85
2023-03-10T05:53:42.874Z,41.35
2023-03-10T05:56:12.636Z,42.60
2023-03-10T05:58:40.044Z,42.70
2023-03-10T06:01:07.868Z,40.75
2023-03-10T06:03:47.737Z,43.13
2023-03-10T06:06:14.246Z,41.55
2023-03-10T06:08:41.495Z,45.13
2023-03-10T06:11:07.926Z,41.78
2023-03-10T06:13:40.207Z,42.97
2023-03-10T06:16:07.370Z,46.33
2023-03-10T06:18:34.730Z,41.42
2023-03-10T06:21:07.468Z,45.15
2023-03-10T06:23:34.338Z,45.65
2023-03-10T06:26:06.991Z,43.95
2023-03-10T06:28:36.673Z,42.92
2023-03-10T06:31:07.519Z,45.25
2023-03-10T06:33:34.477Z,47.03
2023-03-10T06:36:01.523Z,45.60
2023-03-10T06:38:28.344Z,48.03
2023-03-10T06:40:54.759Z,46.45
2023-03-10T06:43:21.214Z,43.90
2023-03-10T06:45:48.204Z,47.10
2023-03-10T06:48:14.921Z,45.85
2023-03-10T06:50:43.255Z,48.33
2023-03-10T06:53:13.914Z,46.58
2023-03-10T06:55:40.584Z,45.58
2023-03-10T06:58:07.251Z,49.35
2023-03-10T07:00:34.012Z,44.58
2023-03-10T07:03:02.676Z,46.58
2023-03-10T07:05:31.289Z,46.08
2023-03-10T07:07:57.692Z,44.20
2023-03-10T07:10:24.222Z,48.35
2023-03-10T07:12:55.182Z,45.47
2023-03-10T07:15:25.824Z,43.28
2023-03-10T07:17:56.230Z,48.65
2023-03-10T07:20:24.263Z,46.00
2023-03-10T07:22:51.410Z,46.58
2023-03-10T07:25:18.124Z,46.90
2023-03-10T07:27:44.495Z,48.67
2023-03-10T07:30:15.519Z,48.78
2023-03-10T07:32:42.066Z,46.00
2023-03-10T07:35:09.629Z,45.10
2023-03-10T07:37:42.414Z,45.47
2023-03-10T07:40:09.839Z,45.53
2023-03-10T07:42:36.253Z,45.28
2023-03-10T07:45:03.082Z,47.60
2023-03-10T07:47:29.712Z,45.95
2023-03-10T07:49:56.477Z,46.42
2023-03-10T07:52:22.933Z,45.22
2023-03-10T07:54:49.443Z,45.08
2023-03-10T07:57:16.400Z,44.00
2023-03-10T07:59:43.057Z,45.90
2023-03-10T08:02:13.040Z,43.72
2023-03-10T08:04:40.633Z,43.70
2023-03-10T08:07:10.169Z,42.40
2023-03-10T08:09:36.992Z,42.10
2023-03-10T08:12:04.197Z,41.22
2023-03-10T08:14:32.140Z,41.05
2023-03-10T08:17:04.803Z,42.85
2023-03-10T08:19:31.300Z,40.40
2023-03-10T08:21:57.894Z,38.30
2023-03-10T08:24:25.279Z,35.08
2023-03-10T08:26:51.778Z,35.10
2023-03-10T08:29:18.300Z,33.35
2023-03-10T08:31:45.026Z,34.42
2023-03-10T08:34:11.501Z,34.85
2023-03-10T08:36:39.139Z,36.10
2023-03-10T08:39:06.869Z,34.38
2023-03-10T08:41:38.563Z,32.95
2023-03-10T08:44:06.438Z,29.73
2023-03-10T08:46:34.673Z,34.05
2023-03-10T08:49:01.165Z,32.75
2023-03-10T08:51:28.436Z,35.33
2023-03-10T08:53:54.926Z,32.78
2023-03-10T08:56:23.022Z,30.20
2023-03-10T08:58:49.446Z,25.58
2023-03-10T09:01:17.390Z,26.35
2023-03-10T09:03:45.261Z,24.63
2023-03-10T09:06:12.097Z,26.88
2023-03-10T09:08:40.714Z,27.95
2023-03-10T09:11:08.934Z,22.95
2023-03-10T09:13:35.474Z,20.13
2023-03-10T09:16:02.038Z,17.30
2023-03-10T09:18:28.532Z,16.15
2023-03-10T09:20:55.057Z,16.83
2023-03-10T09:23:21.440Z,17.10
2023-03-10T09:25:47.762Z,20.27
2023-03-10T09:28:15.381Z,18.05
2023-03-10T09:30:43.214Z,20.98
2023-03-10T09:33:18.851Z,18.55
2023-03-10T09:35:52.923Z,18.23
2023-03-10T09:38:29.733Z,16.17
2023-03-10T09:41:18.807Z,15.77
2023-03-10T09:43:50.719Z,15.35
2023-03-10T09:46:23.037Z,15.60
2023-03-10T09:49:14.246Z,15.38
2023-03-10T09:51:46.319Z,16.15
2023-03-10T09:54:46.857Z,15.30
2023-03-10T09:57:17.370Z,15.07
2023-03-10T09:59:47.111Z,13.93
2023-03-10T10:02:26.160Z,14.40
2023-03-10T10:04:58.419Z,16.55
2023-03-10T10:07:29.609Z,16.88
2023-03-10T10:10:08.489Z,14.85
2023-03-10T10:12:36.077Z,13.18
2023-03-10T10:15:15.132Z,14.90
2023-03-10T10:18:23.993Z,14.35
2023-03-10T10:21:16.303Z,13.68
2023-03-10T10:23:57.679Z,14.60
2023-03-10T10:26:26.608Z,14.93
2023-03-10T10:29:00.338Z,16.90
2023-03-10T10:31:30.396Z,15.07
2023-03-10T10:34:07.235Z,16.10
2023-03-10T10:36:50.900Z,18.00
2023-03-10T10:39:37.159Z,16.05
2023-03-10T10:42:30.224Z,15.32
2023-03-10T10:45:05.685Z,17.67
2023-03-10T10:47:45.983Z,18.15
2023-03-10T10:50:24.044Z,17.88
2023-03-10T10:52:53.632Z,16.88
2023-03-10T10:55:34.663Z,16.45
2023-03-10T10:58:04.132Z,15.27
2023-03-10T11:00:39.432Z,17.52
2023-03-10T11:03:23.201Z,16.95
2023-03-10T11:05:49.606Z,19.92
2023-03-10T11:08:32.843Z,23.27
2023-03-10T11:11:14.619Z,25.63
2023-03-10T11:14:05.431Z,25.88
2023-03-10T11:16:46.971Z,22.83
2023-03-10T11:19:13.382Z,23.27
2023-03-10T11:21:45.304Z,29.15
2023-03-10T11:25:05.911Z,32.83
2023-03-10T11:27:49.500Z,35.65
2023-03-10T11:30:28.654Z,39.50
2023-03-10T11:33:22.243Z,41.13
2023-03-10T11:35:59.851Z,38.58
2023-03-10T11:38:37.086Z,43.00
2023-03-10T11:41:21.094Z,39.88
2023-03-10T11:44:01.737Z,39.25
2023-03-10T11:46:39.525Z,36.38
2023-03-10T11:49:12.272Z,35.03
2023-03-10T11:51:41.880Z,39.22
2023-03-10T11:54:26.914Z,44.10
2023-03-10T11:56:54.198Z,47.35
2023-03-10T11:59:23.850Z,42.50
2023-03-10T12:01:55.788Z,47.60
2023-03-10T12:04:35.097Z,45.15
2023-03-10T12:07:09.767Z,45.92
2023-03-10T12:09:50.654Z,45.20
2023-03-10T12:12:26.216Z,42.47
2023-03-10T12:14:53.807Z,47.83
2023-03-10T12:17:20.295Z,45.67
2023-03-10T12:20:23.638Z,44.70
2023-03-10T12:23:09.928Z,40.65
2023-03-10T12:25:38.193Z,41.70
2023-03-10T12:28:16.896Z,44.85
2023-03-10T12:30:48.888Z,45.15
2023-03-10T12:33:30.739Z,46.08
2023-03-10T12:36:32.872Z,41.97
2023-03-10T12:39:38.412Z,40.72
2023-03-10T12:42:14.558Z,39.17
2023-03-10T12:44:49.901Z,41.78
2023-03-10T12:47:32.816Z,45.50
2023-03-10T12:50:23.822Z,46.25
2023-03-10T12:53:05.040Z,43.38
2023-03-10T12:55:36.471Z,42.92
2023-03-10T12:58:25.307Z,48.38
2023-03-10T13:01:07.202Z,45.15
2023-03-10T13:03:38.359Z,44.88
2023-03-10T13:06:22.105Z,44.13
2023-03-10T13:08:50.725Z,45.43
2023-03-10T13:11:27.483Z,44.08
2023-03-10T13:13:59.781Z,44.97
2023-03-10T13:16:26.265Z,127.40
2023-03-10T13:18:54.431Z,49.15
2023-03-10T13:21:36.291Z,47.90
2023-03-10T13:24:22.070Z,46.08
2023-03-10T13:26:50.870Z,46.47
2023-03-10T13:29:21.794Z,45.83
2023-03-10T13:31:53.114Z,100.75
2023-03-10T13:34:21.333Z,50.55
2023-03-10T13:36:51.042Z,80.63
2023-03-10T13:39:27.935Z,48.10
2023-03-10T13:41:58.527Z,44.38
2023-03-10T13:44:33.001Z,59.53
2023-03-10T13:47:04.716Z,37.78
2023-03-10T13:49:34.641Z,44.40
2023-03-10T13:52:12.100Z,44.72
2023-03-10T13:54:40.957Z,37.47
2023-03-10T13:57:14.736Z,40.00
2023-03-10T13:59:41.693Z,37.88
2023-03-10T14:02:21.871Z,174.32
2023-03-10T14:04:53.256Z,37.53
2023-03-10T14:07:22.546Z,84.70
2023-03-10T14:10:10.218Z,60.83
2023-03-10T14:12:49.180Z,41.38
2023-03-10T14:15:31.779Z,35.38
2023-03-10T14:18:07.373Z,33.65
2023-03-10T14:20:42.643Z,38.40
2023-03-10T14:23:18.173Z,45.13
2023-03-10T14:25:46.242Z,30.05
2023-03-10T14:28:23.704Z,53.42
2023-03-10T14:30:50.561Z,33.20
2023-03-10T14:33:17.282Z,40.30
2023-03-10T14:35:47.407Z,52.30
2023-03-10T14:38:15.076Z,35.40
2023-03-10T14:40:53.947Z,31.77
2023-03-10T14:43:23.085Z,35.47
2023-03-10T14:45:51.312Z,29.67
2023-03-10T14:48:24.624Z,32.17
2023-03-10T14:50:54.141Z,31.42
2023-03-10T14:53:30.223Z,39.53
2023-03-10T14:56:00.519Z,31.15
2023-03-10T14:58:45.066Z,33.80
2023-03-10T15:03:43.674Z,52.42
2023-03-10T15:06:14.408Z,31.27
2023-03-10T15:08:41.061Z,34.53
2023-03-10T15:11:08.140Z,35.92
2023-03-10T15:13:36.530Z,54.08
2023-03-10T15:16:05.291Z,34.53
2023-03-10T15:18:34.168Z,37.28
2023-03-10T15:21:02.030Z,51.33
2023-03-10T15:23:30.018Z,44.78
2023-03-10T15:26:09.480Z,39.35
2023-03-10T15:28:39.237Z,79.78
2023-03-10T15:31:06.658Z,43.42
2023-03-10T15:33:33.222Z,37.70
2023-03-10T15:36:01.810Z,34.45
2023-03-10T15:38:28.519Z,35.67
2023-03-10T15:40:56.800Z,52.42
2023-03-10T15:43:23.372Z,39.08
2023-03-10T15:45:51.042Z,32.42
2023-03-10T15:48:18.056Z,44.83
2023-03-10T15:50:49.194Z,29.77
2023-03-10T15:53:16.053Z,28.20
2023-03-10T15:55:43.168Z,23.58
2023-03-10T15:58:13.845Z,18.73
2023-03-10T16:00:48.217Z,18.45
2023-03-10T16:03:18.418Z,17.55
2023-03-10T16:05:50.231Z,22.38
2023-03-10T16:09:04.244Z,18.10
2023-03-10T16:11:30.830Z,16.23
2023-03-10T16:13:57.441Z,17.40
2023-03-10T16:16:24.188Z,18.23
2023-03-10T16:18:51.491Z,17.83
2023-03-10T16:21:18.939Z,27.77
2023-03-10T16:23:47.405Z,24.85
2023-03-10T16:26:18.120Z,18.65
2023-03-10T16:28:47.250Z,22.95
2023-03-10T16:31:27.282Z,16.30
2023-03-10T16:33:57.110Z,17.13
2023-03-10T16:36:26.911Z,30.50
2023-03-10T16:38:54.443Z,17.13
2023-03-10T16:41:24.222Z,17.77
2023-03-10T16:43:54.778Z,18.05
2023-03-10T16:46:26.981Z,35.67
2023-03-10T16:48:55.105Z,22.20
2023-03-10T16:51:35.296Z,19.83
2023-03-10T16:54:11.648Z,19.85
2023-03-10T16:56:44.153Z,28.10
2023-03-10T16:59:21.918Z,21.55
2023-03-10T17:01:50.042Z,25.42
2023-03-10T17:04:17.218Z,24.08
2023-03-10T17:06:45.223Z,125.90
2023-03-10T17:09:15.456Z,23.55
2023-03-10T17:11:46.598Z,19.35
2023-03-10T17:14:16.919Z,22.85
2023-03-10T17:16:46.098Z,22.55
2023-03-10T17:19:19.274Z,23.25
2023-03-10T17:21:48.470Z,38.60
2023-03-10T17:24:17.522Z,23.48
2023-03-10T17:26:44.231Z,25.38
2023-03-10T17:29:10.996Z,21.70
2023-03-10T17:31:40.106Z,23.08
2023-03-10T17:34:10.737Z,22.35
2023-03-10T17:36:38.300Z,21.58
2023-03-10T17:39:08.649Z,20.15
2023-03-10T17:41:36.049Z,28.60
2023-03-10T17:44:06.438Z,23.55
2023-03-10T17:46:34.922Z,25.95
2023-03-10T17:49:04.300Z,24.98
2023-03-10T17:51:31.129Z,24.88
2023-03-10T17:54:01.199Z,28.15
2023-03-10T17:56:27.824Z,22.00
2023-03-10T17:58:55.796Z,20.33
2023-03-10T18:01:26.986Z,22.42
2023-03-10T18:03:58.325Z,19.75
2023-03-10T18:06:28.302Z,19.75
2023-03-10T18:08:56.642Z,19.20
2023-03-10T18:11:24.453Z,18.63
2023-03-10T18:13:51.830Z,22.35
2023-03-10T18:16:27.534Z,19.15
2023-03-10T18:18:55.480Z,20.30
2023-03-10T18:21:23.414Z,18.85
2023-03-10T18:23:51.328Z,19.17
2023-03-10T18:26:21.610Z,19.98
2023-03-10T18:28:48.366Z,20.70
2023-03-10T18:31:24.228Z,20.05
2023-03-10T18:33:50.899Z,17.88
2023-03-10T18:36:19.227Z,16.30
2023-03-10T18:38:47.295Z,16.35
2023-03-10T18:41:13.834Z,14.93
2023-03-10T18:43:47.540Z,17.17
2023-03-10T18:46:14.400Z,14.75
2023-03-10T18:48:41.459Z,13.48
2023-03-10T18:51:09.066Z,15.60
2023-03-10T18:53:37.400Z,20.83
2023-03-10T18:56:03.963Z,14.98
2023-03-10T18:58:33.760Z,15.70
2023-03-10T19:01:00.527Z,13.23
2023-03-10T19:03:30.885Z,13.57
2023-03-10T19:05:58.319Z,13.52
2023-03-10T19:08:26.953Z,14.43
2023-03-10T19:10:55.357Z,17.25
2023-03-10T19:13:25.200Z,14.88
2023-03-10T19:15:51.689Z,13.48
2023-03-10T19:18:18.457Z,15.02
2023-03-10T19:20:48.663Z,15.65
2023-03-10T19:23:15.239Z,13.70
2023-03-10T19:25:42.003Z,16.33
2023-03-10T19:28:08.708Z,14.63
2023-03-10T19:30:35.770Z,13.52
2023-03-10T19:33:02.302Z,16.05
2023-03-10T19:35:28.913Z,14.07
2023-03-10T19:37:55.573Z,15.60
2023-03-10T19:40:22.999Z,15.75
2023-03-10T19:42:49.567Z,25.35
2023-03-10T19:45:17.974Z,16.00
2023-03-10T19:47:45.484Z,14.85
2023-03-10T19:50:15.432Z,14.93
2023-03-10T19:52:49.453Z,16.17
2023-03-10T19:57:51.428Z,12.85
2023-03-10T20:00:25.299Z,16.23
2023-03-10T20:02:53.916Z,16.55
2023-03-10T20:05:21.784Z,19.83
2023-03-10T20:07:51.378Z,15.98
2023-03-10T20:10:18.214Z,15.95
2023-03-10T20:12:48.262Z,15.10
2023-03-10T20:15:14.978Z,14.73
2023-03-10T20:17:41.510Z,18.77
2023-03-10T20:20:11.230Z,19.50
2023-03-10T20:22:39.760Z,15.57
2023-03-10T20:25:08.485Z,16.20
2023-03-10T20:27:35.376Z,18.15
2023-03-10T20:30:05.561Z,16.52
2023-03-10T20:32:32.017Z,18.00
2023-03-10T20:34:58.427Z,16.90
2023-03-10T20:37:24.875Z,19.17
2023-03-10T20:39:51.255Z,18.42
2023-03-10T20:42:17.690Z,18.70
2023-03-10T20:44:44.491Z,19.55
2023-03-10T20:47:10.999Z,17.70
2023-03-10T20:49:37.524Z,17.92
2023-03-10T20:52:04.091Z,16.98
2023-03-10T20:54:30.475Z,18.35
2023-03-10T20:56:56.871Z,17.38
2023-03-10T20:59:23.255Z,16.65
2023-03-10T21:01:49.800Z,17.80
2023-03-10T21:04:16.269Z,20.83
2023-03-10T21:06:42.787Z,17.30
2023-03-10T21:09:09.365Z,16.80
2023-03-10T21:11:36.017Z,22.98
2023-03-10T21:14:12.112Z,16.83
2023-03-10T21:16:42.825Z,15.50
2023-03-10T21:19:10.161Z,17.35
2023-03-10T21:21:36.552Z,16.63
2023-03-10T21:24:04.841Z,19.83
2023-03-10T21:26:31.590Z,17.02
2023-03-10T21:29:00.009Z,15.70
2023-03-10T21:31:26.789Z,18.10
2023-03-10T21:33:53.316Z,21.83
2023-03-10T21:36:23.085Z,18.08
2023-03-10T21:38:52.994Z,16.55
2023-03-10T21:41:23.326Z,17.58
2023-03-10T21:43:49.983Z,18.30
2023-03-10T21:46:16.588Z,16.98
2023-03-10T21:48:44.218Z,17.48
2023-03-10T21:51:16.104Z,18.50
2023-03-10T21:53:42.757Z,16.00
2023-03-10T21:56:09.487Z,17.65
2023-03-10T21:58:36.313Z,17.38
2023-03-10T22:01:07.111Z,17.38
2023-03-10T22:03:35.253Z,15.77
2023-03-10T22:06:04.684Z,15.27
2023-03-10T22:08:32.721Z,15.55
2023-03-10T22:10:59.151Z,18.40
2023-03-10T22:13:25.572Z,16.60
2023-03-10T22:15:51.988Z,16.83
2023-03-10T22:18:18.606Z,15.02
2023-03-10T22:20:45.387Z,17.75
2023-03-10T22:23:11.884Z,16.35
2023-03-10T22:25:38.392Z,16.20
2023-03-10T22:28:05.251Z,19.00
2023-03-10T22:30:31.828Z,15.02
2023-03-10T22:32:58.674Z,15.73
2023-03-10T22:35:25.013Z,17.38
2023-03-10T22:37:51.922Z,19.35
2023-03-10T22:43:41.490Z,14.77
2023-03-10T22:46:13.727Z,16.27
2023-03-10T22:48:41.000Z,14.25
2023-03-10T22:51:09.371Z,15.50
2023-03-10T22:53:38.060Z,14.38
2023-03-10T22:56:05.009Z,14.70
2023-03-10T22:58:31.412Z,13.02
2023-03-10T23:00:57.860Z,13.70
2023-03-10T23:03:24.302Z,13.65
2023-03-10T23:05:50.702Z,13.40
2023-03-10T23:08:17.238Z,13.65
2023-03-10T23:10:44.146Z,13.43
2023-03-10T23:13:15.811Z,12.07
2023-03-10T23:15:43.038Z,13.02
2023-03-10T23:18:10.191Z,12.25
2023-03-10T23:20:39.896Z,11.75
2023-03-10T23:23:08.193Z,10.63
2023-03-10T23:25:41.149Z,9.65
2023-03-10T23:28:09.159Z,10.13
2023-03-10T23:30:37.581Z,10.85
2023-03-10T23:33:07.333Z,10.95
2023-03-10T23:35:35.071Z,9.95
2023-03-10T23:38:03.883Z,10.25
2023-03-10T23:40:31.683Z,9.27
2023-03-10T23:43:00.278Z,8.38
2023-03-10T23:45:28.962Z,8.68
2023-03-10T23:47:56.213Z,7.78
2023-03-10T23:50:32.327Z,8.70
2023-03-10T23:52:58.927Z,7.10
2023-03-10T23:55:32.226Z,7.25
2023-03-10T23:57:59.188Z,7.32
